Accueil
METAR-TAF:

METAR-TAF

Aéroports :

Aéroport Franjo-Tuđman de Zagreb

Zagreb, Croatie

latitude: 45-44N, longitude: 016-04E, altitude: 106 m

Observation

Le bulletin a été fait il y a 17 minutes, à 11:00 UTC
Vent 4 kt de nord-est, variant entre nord/nord-ouest et sud-est
Température 31°C
Humidité 40%
Pression 1016 hPa
Visibilité 10 km ou plus
Quelques nuages à une hauteur de 4500 ft

METAR: LDZA 201100Z 05004KT 340V130 9999 FEW045 31/16 Q1016 NOSIG

Heure: 13:17 (11:17 UTC)

Prévision

Le bulletin a été fait il y a 5 heures et 52 minutes, à 05:25 UTC
Prévision valable du 20 à 06 UTC au 21 à 06 UTC
Vent 5 kt de nord-est
Visibilité 10 km ou plus
pas de nuages en-dessous de 1500 mètres et pas de cumulonimbus.

TAF: LDZA 200525Z 2006/2106 05005KT CAVOK TX32/2013Z TN17/2103Z

Observations et prévisions météorologiques de plus de 4000 aéroports (messages METAR et TAF).

Les stations disponibles sont représentées par des disques jaunes et rouges sur la carte.

Passer la souris dessus pour voir le nom de la station.

Cliquer dessus pour voir les observations et prévisions météorologiques.

Pour changer de carte: cliquez sur les boutons verts avec une croix noire pour zoomer, sur le bouton vert avec un tiret pour effectuer un zoom arrière, ou sur les flèches vertes pour les cartes adjacentes.


METAR-TAF: